sensor_id;sensor_type;location;lat;lon;timestamp;pressure;altitude;pressure_sealevel;temperature;humidity
71795;BME280;59641;45.188;5.712;2023-06-22T00:01:46;99019.22;;;28.90;46.47
71795;BME280;59641;45.188;5.712;2023-06-22T00:04:11;99025.09;;;28.88;46.31
71795;BME280;59641;45.188;5.712;2023-06-22T00:06:36;99017.19;;;28.87;46.14
71795;BME280;59641;45.188;5.712;2023-06-22T00:09:02;99013.16;;;28.84;46.24
71795;BME280;59641;45.188;5.712;2023-06-22T00:11:28;99022.59;;;28.83;46.15
71795;BME280;59641;45.188;5.712;2023-06-22T00:13:53;99013.03;;;28.81;46.56
71795;BME280;59641;45.188;5.712;2023-06-22T00:16:19;99014.53;;;28.78;47.02
71795;BME280;59641;45.188;5.712;2023-06-22T00:18:44;99013.41;;;28.79;46.52
71795;BME280;59641;45.188;5.712;2023-06-22T00:21:12;99005.47;;;28.78;46.64
71795;BME280;59641;45.188;5.712;2023-06-22T01:46:02;98952.22;;;26.00;52.80
71795;BME280;59641;45.188;5.712;2023-06-22T01:48:28;98943.09;;;26.08;52.56
71795;BME280;59641;45.188;5.712;2023-06-22T01:50:54;98943.97;;;26.21;52.57
71795;BME280;59641;45.188;5.712;2023-06-22T01:53:21;98951.16;;;26.34;52.18
71795;BME280;59641;45.188;5.712;2023-06-22T01:55:47;98950.91;;;26.48;52.04
71795;BME280;59641;45.188;5.712;2023-06-22T01:58:13;98962.81;;;26.61;51.58
71795;BME280;59641;45.188;5.712;2023-06-22T02:00:41;98962.88;;;26.73;51.27
71795;BME280;59641;45.188;5.712;2023-06-22T02:03:11;98958.19;;;26.86;51.28
71795;BME280;59641;45.188;5.712;2023-06-22T02:05:44;98972.00;;;26.98;50.90
71795;BME280;59641;45.188;5.712;2023-06-22T02:08:19;98967.13;;;27.04;50.89
71795;BME280;59641;45.188;5.712;2023-06-22T02:10:47;98963.00;;;27.10;50.92
71795;BME280;59641;45.188;5.712;2023-06-22T02:13:14;98964.53;;;27.20;50.53
71795;BME280;59641;45.188;5.712;2023-06-22T02:15:40;98965.94;;;27.26;50.46
71795;BME280;59641;45.188;5.712;2023-06-22T02:18:06;98965.72;;;27.31;50.09
71795;BME280;59641;45.188;5.712;2023-06-22T02:20:31;98968.16;;;27.33;49.95
71795;BME280;59641;45.188;5.712;2023-06-22T02:22:56;98963.09;;;27.35;49.81
71795;BME280;59641;45.188;5.712;2023-06-22T02:25:22;98971.81;;;27.37;49.86
71795;BME280;59641;45.188;5.712;2023-06-22T02:27:47;98970.31;;;27.39;49.71
71795;BME280;59641;45.188;5.712;2023-06-22T02:30:14;98967.22;;;27.41;49.63
71795;BME280;59641;45.188;5.712;2023-06-22T02:32:41;98955.53;;;27.44;49.64
71795;BME280;59641;45.188;5.712;2023-06-22T02:35:09;98955.19;;;27.46;49.65
71795;BME280;59641;45.188;5.712;2023-06-22T02:37:36;98967.47;;;27.48;49.54
71795;BME280;59641;45.188;5.712;2023-06-22T02:40:08;98962.09;;;27.52;49.45
71795;BME280;59641;45.188;5.712;2023-06-22T02:42:37;98962.53;;;27.54;49.56
71795;BME280;59641;45.188;5.712;2023-06-22T02:45:03;98959.78;;;27.54;48.85
71795;BME280;59641;45.188;5.712;2023-06-22T02:47:28;98960.13;;;27.52;49.26
71795;BME280;59641;45.188;5.712;2023-06-22T02:49:54;98965.66;;;27.52;49.15
71795;BME280;59641;45.188;5.712;2023-06-22T02:52:19;98960.94;;;27.53;49.10
71795;BME280;59641;45.188;5.712;2023-06-22T02:54:44;98957.25;;;27.49;48.74
71795;BME280;59641;45.188;5.712;2023-06-22T02:57:11;98957.25;;;27.49;49.16
71795;BME280;59641;45.188;5.712;2023-06-22T02:59:41;98954.03;;;27.47;49.20
71795;BME280;59641;45.188;5.712;2023-06-22T03:02:08;98950.69;;;27.41;49.03
71795;BME280;59641;45.188;5.712;2023-06-22T03:04:34;98974.56;;;27.37;49.05
71795;BME280;59641;45.188;5.712;2023-06-22T03:07:00;98985.25;;;27.38;49.10
71795;BME280;59641;45.188;5.712;2023-06-22T03:09:27;98977.78;;;27.39;49.09
71795;BME280;59641;45.188;5.712;2023-06-22T03:11:53;98973.44;;;27.38;48.81
71795;BME280;59641;45.188;5.712;2023-06-22T03:14:18;98978.00;;;27.34;49.33
71795;BME280;59641;45.188;5.712;2023-06-22T03:16:43;98976.88;;;27.35;49.15
71795;BME280;59641;45.188;5.712;2023-06-22T03:19:09;98980.44;;;27.35;49.06
71795;BME280;59641;45.188;5.712;2023-06-22T03:21:35;98987.06;;;27.34;49.55
71795;BME280;59641;45.188;5.712;2023-06-22T03:24:02;98975.72;;;27.36;49.39
71795;BME280;59641;45.188;5.712;2023-06-22T03:26:28;98970.22;;;27.36;49.31
71795;BME280;59641;45.188;5.712;2023-06-22T03:28:54;98982.81;;;27.37;49.29
71795;BME280;59641;45.188;5.712;2023-06-22T03:31:19;98991.09;;;27.37;48.81
71795;BME280;59641;45.188;5.712;2023-06-22T03:33:47;98992.25;;;27.36;49.19
71795;BME280;59641;45.188;5.712;2023-06-22T03:36:14;99000.50;;;27.36;49.05
71795;BME280;59641;45.188;5.712;2023-06-22T03:38:41;99023.81;;;27.38;49.26
71795;BME280;59641;45.188;5.712;2023-06-22T03:41:06;99039.56;;;27.38;49.29
71795;BME280;59641;45.188;5.712;2023-06-22T03:43:32;99079.06;;;27.42;48.91
71795;BME280;59641;45.188;5.712;2023-06-22T03:45:57;99103.50;;;27.44;48.75
71795;BME280;59641;45.188;5.712;2023-06-22T03:48:23;99114.88;;;27.42;48.82
71795;BME280;59641;45.188;5.712;2023-06-22T03:50:48;99120.72;;;27.40;48.74
71795;BME280;59641;45.188;5.712;2023-06-22T03:53:13;99127.34;;;27.39;48.97
71795;BME280;59641;45.188;5.712;2023-06-22T03:55:48;99130.59;;;27.41;49.14
71795;BME280;59641;45.188;5.712;2023-06-22T03:58:14;99147.47;;;27.40;49.29
71795;BME280;59641;45.188;5.712;2023-06-22T04:00:39;99149.88;;;27.41;49.02
71795;BME280;59641;45.188;5.712;2023-06-22T04:03:05;99175.94;;;27.44;48.94
71795;BME280;59641;45.188;5.712;2023-06-22T04:05:32;99203.97;;;27.46;49.13
71795;BME280;59641;45.188;5.712;2023-06-22T04:07:58;99192.63;;;27.48;48.74
71795;BME280;59641;45.188;5.712;2023-06-22T04:10:23;99207.19;;;27.48;49.22
71795;BME280;59641;45.188;5.712;2023-06-22T04:12:48;99237.50;;;27.48;48.99
71795;BME280;59641;45.188;5.712;2023-06-22T04:15:14;99235.06;;;27.47;48.96
71795;BME280;59641;45.188;5.712;2023-06-22T04:17:39;99238.19;;;27.45;48.81
71795;BME280;59641;45.188;5.712;2023-06-22T04:20:05;99229.44;;;27.43;48.56
71795;BME280;59641;45.188;5.712;2023-06-22T04:22:31;99262.34;;;27.39;48.68
71795;BME280;59641;45.188;5.712;2023-06-22T04:24:56;99229.97;;;27.36;48.50
71795;BME280;59641;45.188;5.712;2023-06-22T04:27:21;99263.72;;;27.33;48.92
71795;BME280;59641;45.188;5.712;2023-06-22T04:29:48;99267.13;;;27.30;49.50
71795;BME280;59641;45.188;5.712;2023-06-22T04:32:16;99289.81;;;27.27;49.24
71795;BME280;59641;45.188;5.712;2023-06-22T04:34:42;99290.50;;;27.24;49.75
71795;BME280;59641;45.188;5.712;2023-06-22T04:37:07;99270.75;;;27.22;49.84
71795;BME280;59641;45.188;5.712;2023-06-22T04:39:32;99262.81;;;27.21;50.06
71795;BME280;59641;45.188;5.712;2023-06-22T04:41:58;99287.09;;;27.18;50.20
71795;BME280;59641;45.188;5.712;2023-06-22T04:44:25;99292.13;;;27.16;50.72
71795;BME280;59641;45.188;5.712;2023-06-22T04:46:56;99255.19;;;27.17;50.02
71795;BME280;59641;45.188;5.712;2023-06-22T04:49:27;99210.63;;;27.15;50.35
71795;BME280;59641;45.188;5.712;2023-06-22T04:52:02;99161.41;;;27.14;50.74
71795;BME280;59641;45.188;5.712;2023-06-22T04:54:27;99163.22;;;27.10;50.58
71795;BME280;59641;45.188;5.712;2023-06-22T04:56:53;99164.38;;;27.09;50.78
71795;BME280;59641;45.188;5.712;2023-06-22T04:59:26;99172.97;;;27.07;50.78
71795;BME280;59641;45.188;5.712;2023-06-22T05:02:02;99167.78;;;27.06;50.63
71795;BME280;59641;45.188;5.712;2023-06-22T05:04:29;99169.25;;;27.03;50.54
71795;BME280;59641;45.188;5.712;2023-06-22T05:06:58;99155.69;;;26.98;50.68
71795;BME280;59641;45.188;5.712;2023-06-22T05:09:25;99137.41;;;26.93;50.79
71795;BME280;59641;45.188;5.712;2023-06-22T05:11:50;99146.66;;;26.89;51.39
71795;BME280;59641;45.188;5.712;2023-06-22T05:14:16;99164.81;;;26.90;51.19
71795;BME280;59641;45.188;5.712;2023-06-22T05:16:42;99157.34;;;26.90;51.55
71795;BME280;59641;45.188;5.712;2023-06-22T05:19:08;99163.34;;;26.92;51.05
71795;BME280;59641;45.188;5.712;2023-06-22T05:21:34;99158.31;;;26.94;51.16
71795;BME280;59641;45.188;5.712;2023-06-22T05:23:59;99153.13;;;26.93;51.20
71795;BME280;59641;45.188;5.712;2023-06-22T05:26:27;99146.50;;;26.94;51.11
71795;BME280;59641;45.188;5.712;2023-06-22T05:28:53;99155.88;;;26.93;50.87
71795;BME280;59641;45.188;5.712;2023-06-22T05:31:19;99152.00;;;26.94;51.05
71795;BME280;59641;45.188;5.712;2023-06-22T05:33:48;99158.31;;;26.94;51.02
71795;BME280;59641;45.188;5.712;2023-06-22T05:36:14;99160.72;;;26.96;50.92
71795;BME280;59641;45.188;5.712;2023-06-22T05:38:40;99146.94;;;26.96;50.80
71795;BME280;59641;45.188;5.712;2023-06-22T05:41:06;99150.84;;;26.95;50.90
71795;BME280;59641;45.188;5.712;2023-06-22T05:43:32;99169.31;;;26.94;50.87
71795;BME280;59641;45.188;5.712;2023-06-22T05:45:57;99173.19;;;26.93;50.84
71795;BME280;59641;45.188;5.712;2023-06-22T05:48:23;99173.19;;;26.93;51.22
71795;BME280;59641;45.188;5.712;2023-06-22T05:50:49;99166.09;;;26.92;50.88
71795;BME280;59641;45.188;5.712;2023-06-22T05:53:14;99170.44;;;26.93;51.18
71795;BME280;59641;45.188;5.712;2023-06-22T05:55:40;99153.94;;;26.93;50.98
71795;BME280;59641;45.188;5.712;2023-06-22T05:58:06;99156.69;;;26.93;51.22
71795;BME280;59641;45.188;5.712;2023-06-22T06:00:31;99139.38;;;26.93;50.98
71795;BME280;59641;45.188;5.712;2023-06-22T06:02:57;99135.34;;;26.90;51.35
71795;BME280;59641;45.188;5.712;2023-06-22T06:05:26;99140.84;;;26.90;51.20
71795;BME280;59641;45.188;5.712;2023-06-22T06:07:51;99155.41;;;26.91;51.48
71795;BME280;59641;45.188;5.712;2023-06-22T06:10:17;99155.09;;;26.92;51.06
71795;BME280;59641;45.188;5.712;2023-06-22T06:12:42;99136.59;;;26.93;51.30
71795;BME280;59641;45.188;5.712;2023-06-22T06:15:08;99134.66;;;26.93;51.33
71795;BME280;59641;45.188;5.712;2023-06-22T06:17:33;99111.50;;;26.94;50.90
71795;BME280;59641;45.188;5.712;2023-06-22T06:19:59;99108.28;;;26.92;51.31
71795;BME280;59641;45.188;5.712;2023-06-22T06:22:25;99114.91;;;26.91;51.33
71795;BME280;59641;45.188;5.712;2023-06-22T06:24:50;99102.28;;;26.90;51.32
71795;BME280;59641;45.188;5.712;2023-06-22T06:27:16;99101.16;;;26.91;51.56
71795;BME280;59641;45.188;5.712;2023-06-22T06:29:43;99100.34;;;26.91;51.10
71795;BME280;59641;45.188;5.712;2023-06-22T06:32:10;99100.03;;;26.92;51.04
71795;BME280;59641;45.188;5.712;2023-06-22T06:34:36;99104.84;;;26.95;51.42
71795;BME280;59641;45.188;5.712;2023-06-22T06:37:01;99113.69;;;27.01;50.94
71795;BME280;59641;45.188;5.712;2023-06-22T06:39:26;99111.09;;;27.05;51.02
71795;BME280;59641;45.188;5.712;2023-06-22T06:41:52;99098.28;;;27.09;51.05
71795;BME280;59641;45.188;5.712;2023-06-22T06:44:17;99107.47;;;27.13;50.93
71795;BME280;59641;45.188;5.712;2023-06-22T06:46:42;99110.69;;;27.15;50.98
71795;BME280;59641;45.188;5.712;2023-06-22T06:49:08;99109.22;;;27.17;50.83
71795;BME280;59641;45.188;5.712;2023-06-22T06:51:33;99127.88;;;27.21;51.12
71795;BME280;59641;45.188;5.712;2023-06-22T06:53:58;99143.72;;;27.24;51.23
71795;BME280;59641;45.188;5.712;2023-06-22T06:56:24;99138.69;;;27.26;50.73
71795;BME280;59641;45.188;5.712;2023-06-22T06:58:52;99126.03;;;27.25;50.72
71795;BME280;59641;45.188;5.712;2023-06-22T07:01:17;99117.28;;;27.23;51.13
71795;BME280;59641;45.188;5.712;2023-06-22T07:03:44;99110.19;;;27.22;51.45
71795;BME280;59641;45.188;5.712;2023-06-22T07:06:10;99099.16;;;27.22;51.12
71795;BME280;59641;45.188;5.712;2023-06-22T07:08:35;99076.34;;;27.21;50.98
71795;BME280;59641;45.188;5.712;2023-06-22T07:11:01;99087.69;;;27.19;51.17
71795;BME280;59641;45.188;5.712;2023-06-22T07:13:27;99110.50;;;27.20;50.94
71795;BME280;59641;45.188;5.712;2023-06-22T07:15:52;99113.25;;;27.20;50.68
71795;BME280;59641;45.188;5.712;2023-06-22T07:18:18;99108.91;;;27.19;50.56
71795;BME280;59641;45.188;5.712;2023-06-22T07:20:43;99110.84;;;27.18;50.54
71795;BME280;59641;45.188;5.712;2023-06-22T07:23:08;99110.84;;;27.18;49.88
71795;BME280;59641;45.188;5.712;2023-06-22T07:25:34;99104.53;;;27.18;49.90
71795;BME280;59641;45.188;5.712;2023-06-22T07:28:04;99106.97;;;27.19;48.73
71795;BME280;59641;45.188;5.712;2023-06-22T07:30:31;99137.25;;;27.19;48.67
71795;BME280;59641;45.188;5.712;2023-06-22T07:32:57;99151.16;;;27.23;48.07
71795;BME280;59641;45.188;5.712;2023-06-22T07:35:24;99146.25;;;27.29;48.90
71795;BME280;59641;45.188;5.712;2023-06-22T07:37:49;99112.19;;;27.33;48.34
71795;BME280;59641;45.188;5.712;2023-06-22T07:40:14;99085.13;;;27.35;47.71
71795;BME280;59641;45.188;5.712;2023-06-22T07:42:40;99062.72;;;27.37;47.85
71795;BME280;59641;45.188;5.712;2023-06-22T07:45:06;99080.88;;;27.38;48.17
71795;BME280;59641;45.188;5.712;2023-06-22T07:47:33;99107.41;;;27.43;47.86
71795;BME280;59641;45.188;5.712;2023-06-22T07:50:01;99121.31;;;27.46;47.83
71795;BME280;59641;45.188;5.712;2023-06-22T07:52:27;99150.00;;;27.45;47.29
71795;BME280;59641;45.188;5.712;2023-06-22T07:54:52;99163.44;;;27.47;47.33
71795;BME280;59641;45.188;5.712;2023-06-22T07:57:18;99159.56;;;27.48;47.16
71795;BME280;59641;45.188;5.712;2023-06-22T07:59:44;99112.38;;;27.49;45.76
71795;BME280;59641;45.188;5.712;2023-06-22T08:02:09;99119.16;;;27.52;45.59
71795;BME280;59641;45.188;5.712;2023-06-22T08:04:35;99127.88;;;27.54;46.08
71795;BME280;59641;45.188;5.712;2023-06-22T08:07:01;99140.53;;;27.55;46.15
71795;BME280;59641;45.188;5.712;2023-06-22T08:09:28;99160.28;;;27.57;45.96
71795;BME280;59641;45.188;5.712;2023-06-22T08:11:54;99140.63;;;27.58;45.22
71795;BME280;59641;45.188;5.712;2023-06-22T08:14:21;99132.50;;;27.62;45.97
71795;BME280;59641;45.188;5.712;2023-06-22T08:16:46;99127.00;;;27.62;45.69
71795;BME280;59641;45.188;5.712;2023-06-22T08:19:12;99133.66;;;27.61;45.46
71795;BME280;59641;45.188;5.712;2023-06-22T08:21:37;99139.16;;;27.61;44.96
71795;BME280;59641;45.188;5.712;2023-06-22T08:24:03;99143.53;;;27.62;45.33
71795;BME280;59641;45.188;5.712;2023-06-22T08:26:28;99155.38;;;27.62;44.87
71795;BME280;59641;45.188;5.712;2023-06-22T08:28:54;99159.06;;;27.67;45.65
71795;BME280;59641;45.188;5.712;2023-06-22T08:31:19;99162.94;;;27.66;45.74
71795;BME280;59641;45.188;5.712;2023-06-22T08:33:45;99172.84;;;27.67;45.12
71795;BME280;59641;45.188;5.712;2023-06-22T08:36:11;99174.81;;;27.66;45.33
71795;BME280;59641;45.188;5.712;2023-06-22T08:38:38;99158.25;;;27.66;45.29
71795;BME280;59641;45.188;5.712;2023-06-22T08:41:03;99154.34;;;27.67;45.64
71795;BME280;59641;45.188;5.712;2023-06-22T08:43:29;99147.25;;;27.66;45.29
71795;BME280;59641;45.188;5.712;2023-06-22T08:45:54;99160.66;;;27.68;45.55
71795;BME280;59641;45.188;5.712;2023-06-22T08:48:19;99183.88;;;27.67;45.78
71795;BME280;59641;45.188;5.712;2023-06-22T08:50:45;99178.47;;;27.70;46.05
71795;BME280;59641;45.188;5.712;2023-06-22T08:53:10;99166.66;;;27.70;45.74
71795;BME280;59641;45.188;5.712;2023-06-22T08:55:36;99161.94;;;27.70;45.52
71795;BME280;59641;45.188;5.712;2023-06-22T08:58:01;99165.16;;;27.72;45.97
71795;BME280;59641;45.188;5.712;2023-06-22T09:00:26;99169.06;;;27.71;46.20
71795;BME280;59641;45.188;5.712;2023-06-22T09:02:54;99191.44;;;27.70;46.29
71795;BME280;59641;45.188;5.712;2023-06-22T09:05:24;99189.84;;;27.69;46.71
71795;BME280;59641;45.188;5.712;2023-06-22T09:07:50;99189.03;;;27.68;46.86
71795;BME280;59641;45.188;5.712;2023-06-22T09:10:15;99200.06;;;27.68;47.07
71795;BME280;59641;45.188;5.712;2023-06-22T09:12:41;99198.91;;;27.69;47.10
71795;BME280;59641;45.188;5.712;2023-06-22T09:15:07;99202.16;;;27.71;47.36
71795;BME280;59641;45.188;5.712;2023-06-22T09:17:33;99209.41;;;27.76;47.09
71795;BME280;59641;45.188;5.712;2023-06-22T09:19:59;99190.91;;;27.76;47.14
71795;BME280;59641;45.188;5.712;2023-06-22T09:22:24;99190.22;;;27.79;47.22
71795;BME280;59641;45.188;5.712;2023-06-22T09:24:54;99178.53;;;27.82;46.75
71795;BME280;59641;45.188;5.712;2023-06-22T09:27:19;99177.41;;;27.83;46.50
71795;BME280;59641;45.188;5.712;2023-06-22T09:29:45;99175.13;;;27.86;46.24
71795;BME280;59641;45.188;5.712;2023-06-22T09:32:10;99183.41;;;27.86;45.67
71795;BME280;59641;45.188;5.712;2023-06-22T09:34:35;99175.94;;;27.86;46.15
71795;BME280;59641;45.188;5.712;2023-06-22T09:37:01;99190.50;;;27.87;46.69
71795;BME280;59641;45.188;5.712;2023-06-22T09:39:26;99206.25;;;27.86;46.52
71795;BME280;59641;45.188;5.712;2023-06-22T09:41:52;99205.91;;;27.88;47.11
71795;BME280;59641;45.188;5.712;2023-06-22T09:44:17;99179.94;;;27.89;46.65
71795;BME280;59641;45.188;5.712;2023-06-22T09:46:43;99166.97;;;27.89;47.09
71795;BME280;59641;45.188;5.712;2023-06-22T09:49:08;99177.44;;;27.96;47.62
71795;BME280;59641;45.188;5.712;2023-06-22T09:51:34;99193.78;;;28.01;47.86
71795;BME280;59641;45.188;5.712;2023-06-22T09:53:59;99214.50;;;28.07;47.89
71795;BME280;59641;45.188;5.712;2023-06-22T09:56:24;99213.00;;;28.10;48.23
71795;BME280;59641;45.188;5.712;2023-06-22T09:58:52;99209.22;;;28.14;48.62
71795;BME280;59641;45.188;5.712;2023-06-22T10:01:18;99212.44;;;28.16;47.24
71795;BME280;59641;45.188;5.712;2023-06-22T10:03:43;99194.75;;;28.17;47.51
71795;BME280;59641;45.188;5.712;2023-06-22T10:06:08;99191.97;;;28.17;47.41
71795;BME280;59641;45.188;5.712;2023-06-22T10:08:35;99158.09;;;28.17;47.40
71795;BME280;59641;45.188;5.712;2023-06-22T10:11:01;99136.34;;;28.15;46.62
71795;BME280;59641;45.188;5.712;2023-06-22T10:13:26;99169.44;;;28.15;46.76
71795;BME280;59641;45.188;5.712;2023-06-22T10:15:52;99184.03;;;28.16;46.91
71795;BME280;59641;45.188;5.712;2023-06-22T10:18:18;99207.38;;;28.18;46.31
71795;BME280;59641;45.188;5.712;2023-06-22T10:20:46;99166.78;;;28.19;46.37
71795;BME280;59641;45.188;5.712;2023-06-22T10:23:12;99165.66;;;28.20;46.31
71795;BME280;59641;45.188;5.712;2023-06-22T10:25:37;99180.25;;;28.20;46.22
71795;BME280;59641;45.188;5.712;2023-06-22T10:28:03;99166.13;;;28.22;46.35
71795;BME280;59641;45.188;5.712;2023-06-22T10:30:28;99155.91;;;28.22;46.05
71795;BME280;59641;45.188;5.712;2023-06-22T10:32:54;99127.97;;;28.24;45.20
71795;BME280;59641;45.188;5.712;2023-06-22T10:35:19;99125.66;;;28.26;45.49
71795;BME280;59641;45.188;5.712;2023-06-22T10:37:46;99124.53;;;28.27;45.71
71795;BME280;59641;45.188;5.712;2023-06-22T10:40:15;99159.22;;;28.28;46.15
71795;BME280;59641;45.188;5.712;2023-06-22T10:42:41;99166.38;;;28.29;45.88
71795;BME280;59641;45.188;5.712;2023-06-22T10:45:07;99166.38;;;28.29;46.02
71795;BME280;59641;45.188;5.712;2023-06-22T10:47:33;99132.91;;;28.31;46.19
71795;BME280;59641;45.188;5.712;2023-06-22T10:49:58;99083.25;;;28.31;46.06
71795;BME280;59641;45.188;5.712;2023-06-22T10:52:24;99096.94;;;28.27;46.48
71795;BME280;59641;45.188;5.712;2023-06-22T10:54:49;99120.13;;;28.26;46.33
71795;BME280;59641;45.188;5.712;2023-06-22T10:57:14;99117.03;;;28.28;46.48
71795;BME280;59641;45.188;5.712;2023-06-22T10:59:40;99114.06;;;28.33;46.96
71795;BME280;59641;45.188;5.712;2023-06-22T11:02:05;99098.53;;;28.40;46.79
71795;BME280;59641;45.188;5.712;2023-06-22T11:04:31;99093.41;;;28.51;46.20
71795;BME280;59641;45.188;5.712;2023-06-22T11:06:56;99073.59;;;28.61;46.13
71795;BME280;59641;45.188;5.712;2023-06-22T11:09:21;99074.28;;;28.71;45.42
71795;BME280;59641;45.188;5.712;2023-06-22T11:11:47;99075.66;;;28.77;45.37
71795;BME280;59641;45.188;5.712;2023-06-22T11:14:13;99064.81;;;28.84;44.35
71795;BME280;59641;45.188;5.712;2023-06-22T11:16:39;99047.19;;;28.88;44.39
71795;BME280;59641;45.188;5.712;2023-06-22T11:19:05;99053.63;;;28.93;43.87
71795;BME280;59641;45.188;5.712;2023-06-22T11:21:31;99066.28;;;28.94;43.68
71795;BME280;59641;45.188;5.712;2023-06-22T11:23:56;99063.97;;;28.96;43.15
71795;BME280;59641;45.188;5.712;2023-06-22T11:26:22;99070.41;;;29.00;44.04
71795;BME280;59641;45.188;5.712;2023-06-22T11:28:47;99074.41;;;29.02;44.35
71795;BME280;59641;45.188;5.712;2023-06-22T11:31:14;99083.16;;;29.04;44.50
71795;BME280;59641;45.188;5.712;2023-06-22T11:33:39;99087.22;;;29.07;44.55
71795;BME280;59641;45.188;5.712;2023-06-22T11:36:05;99092.75;;;29.07;44.52
71795;BME280;59641;45.188;5.712;2023-06-22T11:38:30;99090.28;;;29.05;44.83
71795;BME280;59641;45.188;5.712;2023-06-22T11:40:57;99102.50;;;29.04;44.36
71795;BME280;59641;45.188;5.712;2023-06-22T11:43:23;99080.75;;;29.03;44.56
71795;BME280;59641;45.188;5.712;2023-06-22T11:45:48;99059.47;;;29.03;44.72
71795;BME280;59641;45.188;5.712;2023-06-22T11:48:13;99055.53;;;29.04;44.28
71795;BME280;59641;45.188;5.712;2023-06-22T11:50:39;99061.56;;;29.06;44.31
71795;BME280;59641;45.188;5.712;2023-06-22T11:53:04;99064.31;;;29.06;44.01
71795;BME280;59641;45.188;5.712;2023-06-22T11:55:29;99060.72;;;29.06;43.76
71795;BME280;59641;45.188;5.712;2023-06-22T11:57:56;99060.06;;;29.09;43.88
71795;BME280;59641;45.188;5.712;2023-06-22T12:00:25;99065.66;;;29.13;43.61
71795;BME280;59641;45.188;5.712;2023-06-22T12:02:51;99055.53;;;29.17;43.65
71795;BME280;59641;45.188;5.712;2023-06-22T12:05:20;99064.34;;;29.22;43.71
71795;BME280;59641;45.188;5.712;2023-06-22T12:07:49;99074.47;;;29.30;43.34
71795;BME280;59641;45.188;5.712;2023-06-22T12:10:15;99078.34;;;29.42;43.13
71795;BME280;59641;45.188;5.712;2023-06-22T12:12:41;99073.88;;;29.53;43.33
71795;BME280;59641;45.188;5.712;2023-06-22T12:15:08;99076.13;;;29.63;43.09
71795;BME280;59641;45.188;5.712;2023-06-22T12:17:34;99084.66;;;29.70;42.09
71795;BME280;59641;45.188;5.712;2023-06-22T12:19:59;99080.13;;;29.78;42.18
71795;BME280;59641;45.188;5.712;2023-06-22T12:22:25;99082.72;;;29.87;41.79
71795;BME280;59641;45.188;5.712;2023-06-22T12:24:50;99066.28;;;29.94;41.61
71795;BME280;59641;45.188;5.712;2023-06-22T12:27:17;99080.22;;;29.98;40.71
71795;BME280;59641;45.188;5.712;2023-06-22T12:29:44;99080.69;;;30.00;40.86
71795;BME280;59641;45.188;5.712;2023-06-22T12:32:10;99097.63;;;29.98;40.24
71795;BME280;59641;45.188;5.712;2023-06-22T12:34:37;99086.56;;;29.98;39.64
71795;BME280;59641;45.188;5.712;2023-06-22T12:37:04;99082.53;;;29.96;39.90
71795;BME280;59641;45.188;5.712;2023-06-22T12:39:30;99086.03;;;29.92;40.41
71795;BME280;59641;45.188;5.712;2023-06-22T12:41:56;99069.72;;;29.87;40.16
71795;BME280;59641;45.188;5.712;2023-06-22T12:44:21;99064.88;;;29.84;40.28
71795;BME280;59641;45.188;5.712;2023-06-22T12:46:46;99056.50;;;29.81;40.30
71795;BME280;59641;45.188;5.712;2023-06-22T12:49:12;99049.34;;;29.80;40.29
71795;BME280;59641;45.188;5.712;2023-06-22T12:51:41;99041.75;;;29.77;40.79
71795;BME280;59641;45.188;5.712;2023-06-22T12:54:10;99035.31;;;29.72;40.47
71795;BME280;59641;45.188;5.712;2023-06-22T12:56:37;99035.25;;;29.69;40.86
71795;BME280;59641;45.188;5.712;2023-06-22T12:59:05;99023.75;;;29.67;40.75
71795;BME280;59641;45.188;5.712;2023-06-22T13:01:31;99020.19;;;29.66;41.33
71795;BME280;59641;45.188;5.712;2023-06-22T13:03:57;99020.19;;;29.66;41.10
71795;BME280;59641;45.188;5.712;2023-06-22T13:06:23;99022.34;;;29.61;41.04
71795;BME280;59641;45.188;5.712;2023-06-22T13:08:48;99018.06;;;29.63;41.16
71795;BME280;59641;45.188;5.712;2023-06-22T13:11:14;99016.81;;;29.61;41.19
71795;BME280;59641;45.188;5.712;2023-06-22T13:13:39;99012.91;;;29.62;41.59
71795;BME280;59641;45.188;5.712;2023-06-22T13:16:05;98999.53;;;29.64;41.57
71795;BME280;59641;45.188;5.712;2023-06-22T13:18:30;98992.41;;;29.63;41.39
71795;BME280;59641;45.188;5.712;2023-06-22T13:20:56;98995.28;;;29.66;41.70
71795;BME280;59641;45.188;5.712;2023-06-22T13:23:23;98998.84;;;29.67;41.52
71795;BME280;59641;45.188;5.712;2023-06-22T13:25:48;99021.78;;;29.67;41.98
71795;BME280;59641;45.188;5.712;2023-06-22T13:28:14;99033.63;;;29.68;41.70
71795;BME280;59641;45.188;5.712;2023-06-22T13:30:41;99058.16;;;29.69;41.68
71795;BME280;59641;45.188;5.712;2023-06-22T13:33:07;99076.72;;;29.69;41.83
71795;BME280;59641;45.188;5.712;2023-06-22T13:35:32;99085.38;;;29.67;42.02
71795;BME280;59641;45.188;5.712;2023-06-22T13:37:57;99099.41;;;29.62;42.37
71795;BME280;59641;45.188;5.712;2023-06-22T13:40:23;99121.44;;;29.59;41.98
71795;BME280;59641;45.188;5.712;2023-06-22T13:42:48;99134.69;;;29.53;42.54
71795;BME280;59641;45.188;5.712;2023-06-22T13:45:14;99175.28;;;29.49;42.71
71795;BME280;59641;45.188;5.712;2023-06-22T13:47:41;99215.81;;;29.45;42.06
71795;BME280;59641;45.188;5.712;2023-06-22T13:50:07;99269.97;;;29.34;40.84
71795;BME280;59641;45.188;5.712;2023-06-22T13:52:32;99307.72;;;29.17;40.24
71795;BME280;59641;45.188;5.712;2023-06-22T13:54:58;99359.88;;;29.06;40.03
71795;BME280;59641;45.188;5.712;2023-06-22T13:57:23;99382.81;;;28.86;37.29
71795;BME280;59641;45.188;5.712;2023-06-22T13:59:48;99387.00;;;28.59;38.09
71795;BME280;59641;45.188;5.712;2023-06-22T14:02:14;99443.88;;;28.30;39.60
71795;BME280;59641;45.188;5.712;2023-06-22T14:04:39;99510.13;;;28.00;41.57
71795;BME280;59641;45.188;5.712;2023-06-22T14:07:04;99545.44;;;27.69;43.01
71795;BME280;59641;45.188;5.712;2023-06-22T14:09:30;99550.88;;;27.39;44.22
71795;BME280;59641;45.188;5.712;2023-06-22T14:11:55;99548.28;;;27.08;45.58
71795;BME280;59641;45.188;5.712;2023-06-22T14:14:21;99555.75;;;26.64;46.40
71795;BME280;59641;45.188;5.712;2023-06-22T14:16:46;99503.53;;;26.15;46.67